Time;durP1;ratioP1;P1;durP2;ratioP2;P2;SDS_P1;SDS_P2;PMS_P1;PMS_P2;Temp;Humidity;BMP_temperature;BMP_pressure;BME280_temperature;BME280_humidity;BME280_pressure;Samples;Min_cycle;Max_cycle;Signal;HPM_P1;HPM_P2
2022/10/24 00:00:59;;;;;;;11.00;4.95;;;16.00;99.90;;;;;;5038282;28;20235;-86
2022/10/24 00:03:25;;;;;;;8.13;4.88;;;16.00;99.90;;;;;;5038997;28;20184;-86
2022/10/24 00:05:51;;;;;;;6.32;5.18;;;16.00;99.90;;;;;;5039103;28;21538;-86
2022/10/24 00:08:17;;;;;;;9.10;4.63;;;16.00;99.90;;;;;;5039168;28;20214;-86
2022/10/24 00:10:48;;;;;;;4.88;4.45;;;16.00;99.90;;;;;;5037821;28;20209;-86
2022/10/24 00:13:15;;;;;;;8.13;5.25;;;16.00;99.90;;;;;;5039405;28;20220;-86
2022/10/24 00:15:46;;;;;;;9.57;5.25;;;15.90;99.90;;;;;;5021305;28;20200;-88
2022/10/24 00:18:12;;;;;;;6.05;4.60;;;16.00;99.90;;;;;;5043799;28;20310;-85
2022/10/24 00:20:39;;;;;;;7.25;4.43;;;16.00;99.90;;;;;;5042871;28;20225;-86
2022/10/24 00:23:04;;;;;;;6.55;4.18;;;15.90;99.90;;;;;;5039182;28;20302;-86
2022/10/24 00:25:30;;;;;;;9.80;4.57;;;15.80;99.90;;;;;;5034224;28;20260;-86
2022/10/24 00:27:55;;;;;;;9.68;4.68;;;15.80;99.90;;;;;;5037878;28;20210;-86
2022/10/24 00:30:21;;;;;;;7.82;5.30;;;15.90;99.90;;;;;;5037825;28;20230;-86
2022/10/24 00:32:47;;;;;;;7.35;4.40;;;15.90;99.90;;;;;;5038634;28;20194;-86
2022/10/24 00:35:12;;;;;;;9.10;4.85;;;15.90;99.90;;;;;;5038395;28;20211;-86
2022/10/24 00:37:38;;;;;;;6.55;4.72;;;15.80;99.90;;;;;;5037238;28;20260;-86
2022/10/24 00:40:05;;;;;;;9.25;4.70;;;15.80;99.90;;;;;;5037727;28;20256;-86
2022/10/24 00:42:31;;;;;;;8.02;4.10;;;15.90;99.90;;;;;;5048252;28;20217;-86
2022/10/24 00:44:57;;;;;;;7.28;4.45;;;15.90;99.90;;;;;;5047601;28;20192;-87
2022/10/24 00:47:25;;;;;;;12.50;4.75;;;15.80;99.90;;;;;;5038498;28;20196;-86
2022/10/24 00:49:59;;;;;;;6.95;4.53;;;15.80;99.90;;;;;;5035202;28;20496;-86
2022/10/24 00:52:32;;;;;;;8.93;4.35;;;15.80;99.90;;;;;;5038435;28;20193;-86
2022/10/24 00:55:00;;;;;;;5.95;4.43;;;15.80;99.90;;;;;;5038025;28;20187;-88
2022/10/24 00:57:38;;;;;;;6.30;4.30;;;15.80;99.90;;;;;;5036829;28;20545;-86
2022/10/24 01:00:12;;;;;;;5.05;4.28;;;15.80;99.90;;;;;;5038408;28;20532;-86
2022/10/24 01:02:38;;;;;;;8.38;4.40;;;15.80;99.90;;;;;;5037701;28;20195;-88
2022/10/24 01:05:05;;;;;;;4.88;4.03;;;15.70;99.90;;;;;;5038267;28;20192;-87
2022/10/24 01:07:59;;;;;;;8.00;4.40;;;15.80;99.90;;;;;;5038631;28;20579;-86
2022/10/24 01:10:56;;;;;;;8.43;4.40;;;15.80;99.90;;;;;;5036857;28;20223;-87
2022/10/24 01:13:38;;;;;;;8.55;4.03;;;15.80;99.90;;;;;;5002730;28;20208;-86
2022/10/24 01:16:33;;;;;;;8.40;4.60;;;15.70;99.90;;;;;;5038410;28;20706;-86
2022/10/24 01:19:36;;;;;;;9.45;4.20;;;15.60;99.90;;;;;;5038196;28;20204;-87
2022/10/24 01:22:11;;;;;;;8.63;4.07;;;15.60;99.90;;;;;;5038010;28;20224;-87
2022/10/24 01:24:50;;;;;;;7.97;3.77;;;15.50;99.90;;;;;;5035490;28;20246;-86
2022/10/24 01:27:51;;;;;;;7.07;3.72;;;15.50;99.90;;;;;;5038290;28;20213;-87
2022/10/24 01:30:18;;;;;;;9.20;4.38;;;15.50;99.90;;;;;;5036328;28;20215;-88
2022/10/24 01:32:54;;;;;;;7.90;4.03;;;15.50;99.90;;;;;;5038269;28;20187;-86
2022/10/24 01:35:26;;;;;;;6.63;4.53;;;15.60;99.90;;;;;;5038158;28;20232;-86
2022/10/24 01:37:58;;;;;;;7.80;3.77;;;15.50;99.90;;;;;;5037684;28;20298;-88
2022/10/24 01:40:30;;;;;;;7.57;3.93;;;15.50;99.90;;;;;;5037982;28;20544;-87
2022/10/24 01:43:00;;;;;;;7.03;3.67;;;15.50;99.90;;;;;;5038071;28;20193;-87
2022/10/24 01:45:33;;;;;;;6.38;3.88;;;15.40;99.90;;;;;;5033969;28;20215;-86
2022/10/24 01:48:02;;;;;;;4.00;3.17;;;15.60;99.90;;;;;;5036137;28;20225;-87
2022/10/24 01:50:28;;;;;;;6.97;3.80;;;15.50;99.90;;;;;;5036852;28;20227;-87
2022/10/24 01:52:57;;;;;;;8.13;3.80;;;15.50;99.90;;;;;;5037290;28;20219;-87
2022/10/24 01:55:23;;;;;;;6.90;3.67;;;15.50;99.90;;;;;;5037266;28;20238;-87
2022/10/24 01:57:48;;;;;;;7.03;3.97;;;15.50;99.90;;;;;;5036607;28;20211;-86
2022/10/24 02:00:18;;;;;;;8.23;3.80;;;15.60;99.90;;;;;;5037599;28;20207;-86
2022/10/24 02:02:48;;;;;;;5.32;3.83;;;15.50;99.90;;;;;;5038049;28;20182;-88
2022/10/24 02:05:20;;;;;;;9.80;3.78;;;15.50;99.90;;;;;;5037650;28;20691;-86
2022/10/24 02:07:50;;;;;;;5.90;3.47;;;15.50;99.90;;;;;;5037754;28;20293;-86
2022/10/24 02:10:22;;;;;;;3.65;3.30;;;15.50;99.90;;;;;;5036558;28;20222;-85
2022/10/24 02:12:56;;;;;;;6.18;3.38;;;15.60;99.90;;;;;;5037367;28;20194;-86
2022/10/24 02:15:28;;;;;;;6.20;3.45;;;15.60;99.90;;;;;;5043627;28;20167;-87
2022/10/24 02:17:56;;;;;;;5.63;3.85;;;15.60;99.90;;;;;;5060781;28;20218;-87
2022/10/24 02:20:33;;;;;;;7.83;3.50;;;15.40;99.90;;;;;;5056755;28;20238;-86
2022/10/24 02:23:19;;;;;;;4.43;3.47;;;15.40;99.90;;;;;;5042659;28;20201;-86
2022/10/24 02:25:50;;;;;;;7.82;3.70;;;15.40;99.90;;;;;;5041048;28;20245;-86
2022/10/24 02:28:21;;;;;;;7.93;3.75;;;15.30;99.90;;;;;;5038170;28;20189;-86
2022/10/24 02:30:54;;;;;;;4.20;3.50;;;15.30;99.90;;;;;;5040030;28;20224;-86
2022/10/24 02:33:21;;;;;;;4.17;3.43;;;15.30;99.90;;;;;;5041099;28;20187;-86
2022/10/24 02:35:48;;;;;;;5.32;3.53;;;15.30;99.90;;;;;;5046756;28;20250;-86
2022/10/24 02:38:28;;;;;;;6.03;3.40;;;15.30;99.90;;;;;;5054619;28;20211;-86
2022/10/24 02:40:57;;;;;;;6.22;3.97;;;15.50;99.90;;;;;;5047469;28;20263;-86
2022/10/24 02:43:25;;;;;;;5.68;3.90;;;15.50;99.90;;;;;;5053683;28;20195;-86
2022/10/24 02:45:53;;;;;;;9.65;4.22;;;15.40;99.90;;;;;;5053215;28;20428;-88
2022/10/24 02:48:25;;;;;;;7.80;4.03;;;15.40;99.90;;;;;;5044049;28;20181;-86
2022/10/24 02:50:51;;;;;;;9.00;4.20;;;15.40;99.90;;;;;;5040497;28;20851;-86
2022/10/24 02:53:20;;;;;;;5.57;3.43;;;15.30;99.90;;;;;;5041109;28;20198;-87
2022/10/24 02:55:45;;;;;;;7.63;3.93;;;15.20;99.90;;;;;;5041056;28;20194;-86
2022/10/24 02:58:11;;;;;;;8.23;4.10;;;15.30;99.90;;;;;;5039198;28;20221;-87
2022/10/24 03:00:37;;;;;;;9.33;3.70;;;15.40;99.90;;;;;;5040107;28;20208;-86
2022/10/24 03:03:03;;;;;;;7.30;3.70;;;15.30;99.90;;;;;;5027531;28;20245;-86
2022/10/24 03:05:28;;;;;;;4.93;3.60;;;15.30;99.90;;;;;;5040133;28;20204;-86
2022/10/24 03:07:54;;;;;;;4.80;3.60;;;15.20;99.90;;;;;;5041845;28;20446;-87
2022/10/24 03:10:20;;;;;;;7.20;3.53;;;15.10;99.90;;;;;;5033824;28;20465;-87
2022/10/24 03:12:45;;;;;;;5.13;3.37;;;15.20;99.90;;;;;;5039608;28;20202;-86
2022/10/24 03:15:11;;;;;;;4.30;3.50;;;15.20;99.90;;;;;;5040334;28;20200;-87
2022/10/24 03:17:37;;;;;;;4.80;4.23;;;15.10;99.90;;;;;;5041121;28;20264;-86
2022/10/24 03:20:03;;;;;;;4.07;3.67;;;15.10;99.90;;;;;;5039186;28;20198;-86
2022/10/24 03:22:29;;;;;;;4.40;3.70;;;15.10;99.90;;;;;;5039490;28;20186;-86
2022/10/24 03:24:54;;;;;;;6.57;4.10;;;15.20;99.90;;;;;;5039892;28;20780;-87
2022/10/24 03:27:21;;;;;;;6.73;4.27;;;15.20;99.90;;;;;;5039653;28;20233;-87
2022/10/24 03:29:46;;;;;;;4.20;3.60;;;15.20;99.90;;;;;;5040707;28;20191;-87
2022/10/24 03:32:12;;;;;;;7.15;4.47;;;15.20;99.90;;;;;;5022056;28;20281;-87
2022/10/24 03:34:38;;;;;;;7.30;4.28;;;15.30;99.90;;;;;;5031679;28;20192;-86
2022/10/24 03:37:03;;;;;;;9.93;3.93;;;15.40;99.90;;;;;;5039303;28;20254;-87
2022/10/24 03:39:29;;;;;;;7.27;3.90;;;15.40;99.90;;;;;;5041054;28;20573;-86
2022/10/24 03:41:55;;;;;;;5.43;3.90;;;15.30;99.90;;;;;;5039570;28;20210;-86
2022/10/24 03:44:20;;;;;;;6.40;4.28;;;15.20;99.90;;;;;;5039499;28;20206;-86
2022/10/24 03:46:46;;;;;;;4.87;3.80;;;15.20;99.90;;;;;;5039315;28;20216;-86
2022/10/24 03:49:12;;;;;;;7.03;3.83;;;15.30;99.90;;;;;;5039649;28;20258;-86
2022/10/24 03:51:37;;;;;;;7.57;4.17;;;15.30;99.90;;;;;;5039395;28;20214;-87
2022/10/24 03:54:03;;;;;;;8.10;4.27;;;15.20;99.90;;;;;;5039506;28;20221;-86
2022/10/24 03:56:29;;;;;;;7.95;3.70;;;15.20;99.90;;;;;;5038477;28;20219;-87
2022/10/24 03:58:54;;;;;;;6.90;3.77;;;15.10;99.90;;;;;;5038281;28;20201;-86
2022/10/24 04:01:21;;;;;;;6.30;3.50;;;15.10;99.90;;;;;;5037787;28;20252;-86
2022/10/24 04:03:46;;;;;;;5.87;3.47;;;15.20;99.90;;;;;;5037670;28;20183;-86
2022/10/24 04:06:12;;;;;;;3.67;3.38;;;15.20;99.90;;;;;;5036334;28;20217;-87
2022/10/24 04:08:38;;;;;;;5.30;3.88;;;15.20;99.90;;;;;;5038053;28;20584;-87
2022/10/24 04:11:05;;;;;;;8.30;3.50;;;15.10;99.90;;;;;;5037192;28;20256;-87
2022/10/24 04:13:31;;;;;;;5.90;3.55;;;15.20;99.90;;;;;;5028350;28;20238;-87
2022/10/24 04:15:57;;;;;;;5.57;3.57;;;15.10;99.90;;;;;;5033701;28;20193;-87
2022/10/24 04:18:22;;;;;;;5.88;3.25;;;15.10;99.90;;;;;;5033130;28;20628;-87
2022/10/24 04:20:48;;;;;;;4.93;3.43;;;15.00;99.90;;;;;;5028531;28;20645;-87
2022/10/24 04:23:14;;;;;;;6.10;3.40;;;15.10;99.90;;;;;;5034241;28;20683;-85
2022/10/24 04:25:39;;;;;;;7.70;3.90;;;15.00;99.90;;;;;;5032593;28;20198;-86
2022/10/24 04:28:05;;;;;;;8.38;3.70;;;15.10;99.90;;;;;;5033907;28;20194;-89
2022/10/24 04:30:31;;;;;;;6.00;4.00;;;15.10;99.90;;;;;;5046176;28;20263;-88
2022/10/24 04:32:57;;;;;;;9.73;3.63;;;15.20;99.90;;;;;;5038743;28;20262;-87
2022/10/24 04:35:24;;;;;;;4.68;3.47;;;15.30;99.90;;;;;;5034617;28;20222;-86
2022/10/24 04:37:50;;;;;;;6.80;3.10;;;15.20;99.90;;;;;;5033793;28;20221;-89
2022/10/24 04:40:16;;;;;;;4.75;3.45;;;15.30;99.90;;;;;;5033229;28;20721;-86
2022/10/24 04:42:42;;;;;;;8.00;4.15;;;15.30;99.90;;;;;;5031665;28;20279;-86
2022/10/24 04:45:08;;;;;;;4.82;4.10;;;15.20;99.90;;;;;;5028166;28;20191;-88
2022/10/24 04:47:34;;;;;;;244.53;210.90;;;15.20;99.90;;;;;;5031867;28;20230;-86
2022/10/24 04:49:59;;;;;;;15.40;8.97;;;15.20;99.90;;;;;;5031911;28;20272;-86
2022/10/24 04:52:25;;;;;;;7.87;4.37;;;15.00;99.90;;;;;;5031559;28;20731;-86
2022/10/24 04:54:50;;;;;;;8.47;4.37;;;14.90;99.90;;;;;;5032021;28;20597;-85
2022/10/24 04:57:16;;;;;;;9.63;4.87;;;14.80;99.90;;;;;;5032052;28;20224;-88
2022/10/24 04:59:42;;;;;;;7.80;4.40;;;15.00;99.90;;;;;;5031960;28;20185;-88
2022/10/24 05:02:07;;;;;;;12.00;5.63;;;15.20;99.90;;;;;;5034008;28;20234;-87
2022/10/24 05:04:33;;;;;;;6.93;4.87;;;15.30;99.90;;;;;;5056486;28;20213;-88
2022/10/24 05:06:59;;;;;;;13.33;5.00;;;15.30;99.90;;;;;;5052152;28;20220;-88
2022/10/24 05:09:24;;;;;;;8.87;5.10;;;15.40;99.90;;;;;;5037856;28;20216;-88
2022/10/24 05:11:50;;;;;;;8.03;5.07;;;15.50;99.90;;;;;;5031854;28;20301;-88
2022/10/24 05:14:16;;;;;;;11.47;5.03;;;15.60;99.90;;;;;;5018743;28;20205;-88
2022/10/24 05:16:41;;;;;;;9.20;5.35;;;15.60;99.90;;;;;;5031047;28;20253;-89
2022/10/24 05:19:07;;;;;;;9.75;4.88;;;15.50;99.90;;;;;;5031008;28;20196;-88
2022/10/24 05:21:32;;;;;;;10.38;5.53;;;15.50;99.90;;;;;;5031157;28;20243;-89
2022/10/24 05:23:58;;;;;;;9.80;6.00;;;15.60;99.90;;;;;;5031227;28;20215;-89
2022/10/24 05:26:24;;;;;;;10.75;5.57;;;15.60;99.90;;;;;;5031764;28;20186;-89
2022/10/24 05:28:50;;;;;;;7.53;4.97;;;15.60;99.90;;;;;;5031066;28;20288;-89
2022/10/24 05:31:15;;;;;;;11.60;5.38;;;15.60;99.90;;;;;;5023706;28;20222;-89
2022/10/24 05:33:41;;;;;;;10.47;5.00;;;15.60;99.90;;;;;;5035196;28;20209;-89
2022/10/24 05:36:07;;;;;;;13.67;5.57;;;15.70;99.90;;;;;;5033800;28;20189;-88
2022/10/24 05:38:33;;;;;;;7.37;4.83;;;15.70;99.90;;;;;;5035951;28;20196;-89
2022/10/24 05:40:58;;;;;;;11.70;5.50;;;15.80;99.90;;;;;;5035317;28;20908;-89
2022/10/24 05:43:24;;;;;;;14.87;6.10;;;15.90;99.90;;;;;;5029102;28;20199;-89
2022/10/24 05:45:50;;;;;;;8.30;4.87;;;16.00;99.90;;;;;;5026863;28;20193;-89
2022/10/24 05:48:15;;;;;;;11.73;5.63;;;16.10;99.90;;;;;;5029371;28;20291;-89
2022/10/24 05:50:41;;;;;;;10.33;5.43;;;16.10;99.90;;;;;;5026870;28;20206;-89
2022/10/24 05:53:08;;;;;;;11.80;5.30;;;16.00;99.90;;;;;;5027092;28;20250;-89
2022/10/24 05:55:34;;;;;;;11.50;5.20;;;16.10;99.90;;;;;;5028421;28;20289;-88
2022/10/24 05:58:00;;;;;;;13.32;5.10;;;16.00;99.90;;;;;;5029865;28;20236;-88
2022/10/24 06:00:26;;;;;;;9.65;4.97;;;15.90;99.90;;;;;;5027928;28;20257;-88
2022/10/24 06:02:51;;;;;;;10.15;5.07;;;16.00;99.90;;;;;;5028786;28;20204;-88
2022/10/24 06:05:17;;;;;;;9.15;4.53;;;16.00;99.90;;;;;;5029217;28;20186;-89
2022/10/24 06:07:44;;;;;;;9.50;5.43;;;15.90;99.90;;;;;;5029091;28;20755;-89
2022/10/24 06:10:11;;;;;;;14.13;5.95;;;15.90;99.90;;;;;;5028882;28;20198;-88
2022/10/24 06:12:37;;;;;;;10.02;5.07;;;15.90;99.90;;;;;;5029246;28;20536;-89
2022/10/24 06:15:06;;;;;;;9.90;5.20;;;16.00;99.90;;;;;;5026968;28;20215;-88
2022/10/24 06:17:31;;;;;;;8.70;4.88;;;16.00;99.90;;;;;;5030064;28;20247;-88
2022/10/24 06:19:57;;;;;;;9.45;5.65;;;16.10;99.90;;;;;;5032143;28;20211;-89
2022/10/24 06:22:24;;;;;;;9.90;4.75;;;16.10;99.90;;;;;;5021306;28;20195;-89
2022/10/24 06:24:49;;;;;;;8.80;5.13;;;15.90;99.90;;;;;;5046433;28;20194;-89
2022/10/24 06:27:15;;;;;;;13.35;5.15;;;16.00;99.90;;;;;;5027584;28;20256;-89
2022/10/24 06:29:41;;;;;;;11.77;5.00;;;16.00;99.90;;;;;;5035319;28;20188;-88
2022/10/24 06:32:07;;;;;;;13.60;5.07;;;15.90;99.90;;;;;;5035161;28;20221;-88
2022/10/24 06:34:34;;;;;;;10.80;5.05;;;15.70;99.90;;;;;;5035607;28;20229;-88
2022/10/24 06:37:00;;;;;;;9.52;4.97;;;15.70;99.90;;;;;;5036663;28;20211;-88
2022/10/24 06:39:26;;;;;;;8.00;4.73;;;15.80;99.90;;;;;;5033692;28;20219;-88
2022/10/24 06:41:52;;;;;;;6.07;4.60;;;15.80;99.90;;;;;;5040673;28;20263;-87
2022/10/24 06:44:17;;;;;;;11.10;4.23;;;16.00;99.90;;;;;;5038813;28;20558;-87
2022/10/24 06:46:43;;;;;;;7.87;4.00;;;16.00;99.90;;;;;;5035282;28;20236;-87
2022/10/24 06:49:10;;;;;;;5.97;4.17;;;16.10;99.90;;;;;;5033924;28;20204;-87
2022/10/24 06:51:36;;;;;;;9.37;3.83;;;16.30;99.90;;;;;;5035661;28;20220;-87
2022/10/24 06:54:02;;;;;;;6.77;4.17;;;16.20;99.90;;;;;;5035606;28;20196;-89
2022/10/24 06:56:27;;;;;;;5.33;3.63;;;16.20;99.90;;;;;;5032275;28;20197;-86
2022/10/24 06:58:53;;;;;;;6.70;3.63;;;16.20;99.90;;;;;;5033911;28;20182;-89
2022/10/24 07:01:21;;;;;;;8.10;3.60;;;16.20;99.90;;;;;;5040713;28;20230;-87
2022/10/24 07:03:48;;;;;;;6.83;4.93;;;16.10;99.90;;;;;;5052735;28;20281;-87
2022/10/24 07:06:25;;;;;;;7.40;4.00;;;16.00;99.90;;;;;;5056586;28;20237;-87
2022/10/24 07:08:52;;;;;;;6.40;3.43;;;16.10;99.90;;;;;;5040131;28;20182;-87
2022/10/24 07:11:18;;;;;;;7.43;3.63;;;16.00;99.90;;;;;;5038864;28;20228;-87
2022/10/24 07:13:44;;;;;;;5.13;3.50;;;15.90;99.90;;;;;;5040848;28;20632;-87
2022/10/24 07:16:10;;;;;;;7.53;3.60;;;16.00;99.90;;;;;;5036860;28;20272;-88
2022/10/24 07:18:36;;;;;;;5.20;3.53;;;16.20;99.90;;;;;;5035503;28;20817;-87
2022/10/24 07:21:05;;;;;;;5.97;3.40;;;16.20;99.90;;;;;;5036075;28;20251;-88
2022/10/24 07:23:31;;;;;;;6.43;3.80;;;16.30;99.90;;;;;;5038461;28;20192;-88
2022/10/24 07:26:05;;;;;;;4.73;3.33;;;16.40;99.90;;;;;;5038220;28;20189;-87
2022/10/24 07:28:32;;;;;;;7.47;3.47;;;16.30;99.90;;;;;;5054937;28;20217;-89
2022/10/24 07:30:58;;;;;;;4.27;3.40;;;16.40;99.90;;;;;;5049258;28;20215;-88
2022/10/24 07:33:24;;;;;;;4.80;3.40;;;16.20;99.90;;;;;;5038694;28;20198;-88
2022/10/24 07:35:50;;;;;;;6.03;3.70;;;16.30;99.90;;;;;;5037526;28;20205;-88
2022/10/24 07:38:16;;;;;;;6.40;3.93;;;16.10;99.90;;;;;;5036799;28;20229;-87
2022/10/24 07:40:42;;;;;;;5.93;3.67;;;16.20;99.90;;;;;;5037340;28;20216;-87
2022/10/24 07:43:08;;;;;;;8.33;3.90;;;16.20;99.90;;;;;;5038167;28;20194;-88
2022/10/24 07:45:34;;;;;;;8.80;3.80;;;16.10;99.90;;;;;;5038025;28;20209;-88
2022/10/24 07:47:59;;;;;;;5.77;3.70;;;16.20;99.90;;;;;;5036359;28;20189;-87
2022/10/24 07:50:26;;;;;;;8.03;3.17;;;16.20;99.90;;;;;;5043188;28;20207;-90
2022/10/24 07:52:51;;;;;;;7.07;4.03;;;16.30;99.90;;;;;;5057717;28;20170;-89
2022/10/24 07:55:17;;;;;;;5.80;3.70;;;16.30;99.90;;;;;;5049233;28;20289;-88
2022/10/24 07:57:43;;;;;;;6.25;3.80;;;16.20;99.90;;;;;;5036275;28;20571;-88
2022/10/24 08:00:09;;;;;;;7.10;4.13;;;16.20;99.90;;;;;;5035519;28;20204;-88
2022/10/24 08:02:35;;;;;;;5.93;4.10;;;16.20;99.90;;;;;;5037403;28;20431;-88
2022/10/24 08:05:00;;;;;;;6.40;3.77;;;16.20;99.90;;;;;;5038894;28;20191;-88
2022/10/24 08:07:26;;;;;;;7.13;3.93;;;16.30;99.90;;;;;;5037179;28;20190;-88
2022/10/24 08:09:52;;;;;;;6.88;3.60;;;16.20;99.90;;;;;;5036211;28;20578;-88
2022/10/24 08:12:18;;;;;;;5.43;3.55;;;16.40;99.90;;;;;;5036204;28;20199;-88
2022/10/24 08:14:43;;;;;;;7.55;3.50;;;16.50;99.90;;;;;;5040644;28;20202;-89
2022/10/24 08:17:09;;;;;;;8.68;3.70;;;16.50;99.90;;;;;;5053323;28;20316;-87
2022/10/24 08:19:35;;;;;;;7.47;3.65;;;16.60;99.90;;;;;;5040886;28;20215;-88
2022/10/24 08:22:02;;;;;;;6.07;3.55;;;16.70;99.90;;;;;;5042271;28;20223;-88
2022/10/24 08:24:28;;;;;;;4.40;4.00;;;16.60;99.90;;;;;;5036039;28;20194;-88
2022/10/24 08:26:55;;;;;;;6.68;3.90;;;16.60;99.90;;;;;;5037701;28;20216;-88
2022/10/24 08:29:22;;;;;;;7.82;3.75;;;16.40;99.90;;;;;;5036048;28;20204;-88
2022/10/24 08:31:49;;;;;;;7.93;4.22;;;16.60;99.90;;;;;;5037059;28;20239;-88
2022/10/24 08:34:16;;;;;;;8.63;4.30;;;16.50;99.90;;;;;;5036326;28;20199;-88
2022/10/24 08:36:42;;;;;;;6.70;3.92;;;16.60;99.90;;;;;;5035918;28;20208;-88
2022/10/24 08:39:08;;;;;;;6.30;3.90;;;16.50;99.90;;;;;;5035572;28;20303;-88
2022/10/24 08:41:49;;;;;;;6.68;3.95;;;16.50;99.90;;;;;;5037063;28;20212;-88
2022/10/24 08:44:31;;;;;;;5.70;4.00;;;16.50;99.90;;;;;;5033149;28;20274;-88
2022/10/24 08:47:33;;;;;;;6.20;4.18;;;16.50;99.90;;;;;;5035894;28;20184;-88
2022/10/24 08:50:10;;;;;;;5.72;3.78;;;16.60;99.90;;;;;;4955573;29;20201;-88
2022/10/24 08:52:35;;;;;;;6.78;3.75;;;16.80;99.90;;;;;;5026136;28;20207;-88
2022/10/24 08:55:10;;;;;;;8.88;4.40;;;16.70;99.90;;;;;;5035590;28;20192;-88
2022/10/24 08:57:37;;;;;;;5.25;3.80;;;16.80;99.90;;;;;;5037045;28;20216;-87
2022/10/24 09:00:19;;;;;;;5.70;4.45;;;16.80;99.90;;;;;;5036297;28;20184;-88
2022/10/24 09:02:54;;;;;;;4.70;4.10;;;16.80;99.90;;;;;;5036003;28;20821;-88
2022/10/24 09:05:24;;;;;;;5.63;3.85;;;16.90;99.90;;;;;;5035676;28;20291;-87
2022/10/24 09:07:56;;;;;;;4.63;4.00;;;16.90;99.90;;;;;;5035558;28;20189;-87
2022/10/24 09:10:51;;;;;;;5.72;4.07;;;16.90;99.90;;;;;;5037451;28;20216;-87
2022/10/24 09:13:16;;;;;;;9.32;4.63;;;16.90;99.90;;;;;;5026835;28;20690;-88
2022/10/24 09:15:44;;;;;;;7.15;4.28;;;17.00;99.90;;;;;;5028081;28;20194;-87
2022/10/24 09:18:32;;;;;;;7.38;4.50;;;17.10;99.90;;;;;;5037312;28;20296;-89
2022/10/24 09:21:00;;;;;;;6.70;4.72;;;17.10;99.90;;;;;;5036439;28;20213;-87
2022/10/24 09:23:26;;;;;;;8.27;4.00;;;17.10;99.90;;;;;;5038972;28;20185;-87
2022/10/24 09:25:55;;;;;;;8.93;4.75;;;17.20;99.90;;;;;;5040733;28;20185;-87
2022/10/24 09:28:21;;;;;;;8.52;4.75;;;17.10;99.90;;;;;;5035358;28;20198;-87
2022/10/24 09:30:48;;;;;;;10.95;4.80;;;17.20;99.90;;;;;;5037253;28;20213;-87
2022/10/24 09:33:28;;;;;;;8.50;4.95;;;17.20;99.90;;;;;;5032642;28;20258;-87
2022/10/24 09:35:57;;;;;;;8.35;4.43;;;17.20;99.90;;;;;;5035794;28;20285;-87
2022/10/24 09:38:24;;;;;;;8.05;4.47;;;17.30;99.90;;;;;;5038038;28;20209;-88
2022/10/24 09:40:59;;;;;;;10.57;4.63;;;17.30;99.90;;;;;;5037225;28;20207;-87
2022/10/24 09:43:31;;;;;;;8.80;4.68;;;17.30;99.90;;;;;;5040139;28;20186;-87
2022/10/24 09:46:04;;;;;;;6.25;4.13;;;17.30;99.90;;;;;;5043638;28;20184;-87
2022/10/24 09:48:34;;;;;;;8.20;4.82;;;17.60;99.90;;;;;;5043242;28;20193;-87
2022/10/24 09:51:01;;;;;;;7.05;4.78;;;17.60;99.90;;;;;;5047538;28;20207;-87
2022/10/24 09:53:30;;;;;;;7.90;4.65;;;17.70;99.90;;;;;;5047691;28;20193;-87
2022/10/24 09:56:05;;;;;;;11.90;4.85;;;17.90;99.90;;;;;;5043566;28;20191;-89
2022/10/24 09:58:32;;;;;;;10.05;4.07;;;17.80;99.90;;;;;;5042042;28;20323;-87
2022/10/24 10:01:03;;;;;;;8.15;4.07;;;17.80;99.90;;;;;;5042882;28;20196;-88
2022/10/24 10:03:30;;;;;;;9.00;3.92;;;17.70;99.90;;;;;;5041582;28;20196;-89
2022/10/24 10:06:01;;;;;;;8.70;4.32;;;17.70;99.90;;;;;;5042227;28;20271;-88
2022/10/24 10:08:31;;;;;;;10.10;4.43;;;17.90;99.90;;;;;;5051447;28;20192;-86
2022/10/24 10:11:11;;;;;;;7.22;4.25;;;18.00;99.90;;;;;;5044660;28;20197;-86
2022/10/24 10:13:49;;;;;;;8.60;4.10;;;17.90;99.90;;;;;;5039085;28;20200;-87
2022/10/24 10:16:35;;;;;;;6.07;4.50;;;17.90;99.90;;;;;;5041041;28;20180;-88
2022/10/24 10:19:12;;;;;;;9.00;4.80;;;17.90;99.90;;;;;;5042623;28;20260;-88
2022/10/24 10:22:01;;;;;;;7.50;4.30;;;18.00;99.90;;;;;;5041793;28;20220;-89
2022/10/24 10:24:40;;;;;;;9.05;4.03;;;17.90;99.90;;;;;;5035452;28;20200;-88
2022/10/24 10:27:26;;;;;;;8.35;5.00;;;17.90;99.90;;;;;;5039186;28;20231;-88
2022/10/24 10:30:10;;;;;;;7.95;4.32;;;17.90;99.90;;;;;;5035470;28;20254;-89
2022/10/24 10:33:13;;;;;;;7.70;4.55;;;17.90;99.90;;;;;;5037927;28;20197;-89
2022/10/24 10:35:57;;;;;;;8.52;4.82;;;17.90;99.90;;;;;;5032841;28;20287;-89
2022/10/24 10:38:57;;;;;;;6.60;4.07;;;18.00;99.90;;;;;;5059269;28;20257;-87
2022/10/24 10:41:50;;;;;;;7.43;4.47;;;18.30;99.90;;;;;;5049429;28;20295;-89
2022/10/24 10:44:42;;;;;;;5.53;4.30;;;18.60;99.90;;;;;;5040474;28;20809;-88
2022/10/24 10:47:17;;;;;;;10.27;5.45;;;18.80;99.90;;;;;;5037494;28;20177;-89
2022/10/24 10:49:44;;;;;;;10.38;4.97;;;19.10;99.90;;;;;;5038350;28;20200;-89
2022/10/24 10:52:29;;;;;;;6.45;3.88;;;19.10;99.90;;;;;;5043192;28;20219;-89
2022/10/24 10:55:22;;;;;;;7.90;4.25;;;19.30;99.90;;;;;;5041343;28;20181;-89
2022/10/24 10:58:00;;;;;;;8.77;4.47;;;19.30;99.90;;;;;;5042668;28;20278;-89
2022/10/24 11:01:13;;;;;;;6.10;4.00;;;19.00;99.90;;;;;;5041793;28;20204;-88
2022/10/24 11:03:54;;;;;;;6.45;4.10;;;19.00;99.90;;;;;;5036115;28;20189;-88
2022/10/24 11:06:25;;;;;;;6.50;3.78;;;19.00;99.90;;;;;;5034994;28;20184;-88
2022/10/24 11:08:56;;;;;;;8.07;4.75;;;19.00;99.90;;;;;;5035003;28;20193;-88
2022/10/24 11:11:35;;;;;;;7.72;3.92;;;19.00;99.90;;;;;;5036177;28;20208;-88
2022/10/24 11:14:05;;;;;;;9.43;4.13;;;18.70;99.90;;;;;;5036273;28;20193;-88
2022/10/24 11:16:32;;;;;;;7.35;4.18;;;18.80;99.90;;;;;;5035570;28;20194;-88
2022/10/24 11:19:08;;;;;;;5.43;4.10;;;18.90;99.90;;;;;;5039017;28;20233;-88
2022/10/24 11:21:36;;;;;;;6.25;3.67;;;18.90;98.90;;;;;;5047231;28;20474;-88
2022/10/24 11:24:11;;;;;;;7.18;4.05;;;18.90;99.00;;;;;;5046772;28;20195;-88
2022/10/24 11:27:02;;;;;;;9.75;4.57;;;19.00;99.70;;;;;;5038587;28;20200;-89
2022/10/24 11:29:37;;;;;;;7.80;4.15;;;19.10;99.20;;;;;;5027322;28;20717;-89
2022/10/24 11:32:26;;;;;;;7.40;3.97;;;19.50;96.80;;;;;;5036194;28;20207;-88
2022/10/24 11:35:18;;;;;;;9.55;4.22;;;19.60;95.50;;;;;;5036739;28;20301;-88
2022/10/24 11:37:49;;;;;;;6.53;4.25;;;19.60;95.50;;;;;;5039772;28;20217;-89
2022/10/24 11:40:21;;;;;;;6.95;3.92;;;19.90;93.90;;;;;;5041183;28;20212;-88
2022/10/24 11:43:20;;;;;;;7.57;4.70;;;20.00;94.90;;;;;;5039106;28;20193;-89
2022/10/24 11:45:50;;;;;;;7.35;4.05;;;20.00;93.60;;;;;;5039666;28;20188;-89
2022/10/24 11:48:33;;;;;;;6.05;4.00;;;19.90;93.00;;;;;;5039771;28;20189;-87
2022/10/24 11:51:16;;;;;;;7.88;4.15;;;19.90;92.60;;;;;;5036496;28;20226;-89
2022/10/24 11:54:23;;;;;;;7.60;4.25;;;20.00;91.70;;;;;;5038500;28;20651;-89
2022/10/24 11:56:53;;;;;;;7.95;4.80;;;19.70;91.40;;;;;;5013275;28;20658;-90
2022/10/24 11:59:24;;;;;;;7.88;3.95;;;19.60;90.70;;;;;;5042757;28;20176;-88
2022/10/24 12:02:22;;;;;;;8.55;4.18;;;19.50;93.50;;;;;;5052123;28;20319;-89
2022/10/24 12:05:06;;;;;;;5.13;3.80;;;19.70;91.40;;;;;;5015813;28;20205;-89
2022/10/24 12:07:51;;;;;;;10.27;4.57;;;19.70;92.30;;;;;;5038740;28;20217;-89
2022/10/24 12:11:03;;;;;;;7.60;4.57;;;19.90;92.10;;;;;;5038163;28;20205;-89
2022/10/24 12:13:37;;;;;;;8.23;4.00;;;20.00;90.70;;;;;;5032222;28;20208;-88
2022/10/24 12:16:35;;;;;;;4.55;3.75;;;19.90;90.80;;;;;;5042223;28;20184;-89
2022/10/24 12:19:04;;;;;;;8.50;4.50;;;20.00;91.90;;;;;;5024371;28;20220;-89
2022/10/24 12:21:38;;;;;;;6.90;3.90;;;20.40;89.70;;;;;;5038609;28;21000;-90
2022/10/24 12:24:05;;;;;;;7.00;4.30;;;20.80;87.40;;;;;;5038786;28;20317;-90
2022/10/24 12:26:33;;;;;;;8.68;4.55;;;20.90;84.40;;;;;;5040231;28;20193;-89
2022/10/24 12:29:05;;;;;;;7.50;4.53;;;21.10;85.20;;;;;;5020074;28;20194;-89
2022/10/24 12:31:34;;;;;;;6.32;3.55;;;21.00;87.70;;;;;;5039980;28;20927;-90
2022/10/24 12:34:15;;;;;;;9.30;4.88;;;21.00;83.90;;;;;;5037985;28;20203;-90
2022/10/24 12:37:04;;;;;;;6.20;4.20;;;21.10;86.90;;;;;;5039276;28;20290;-88
2022/10/24 12:39:50;;;;;;;6.00;4.43;;;21.10;84.50;;;;;;5034901;28;20198;-88
2022/10/24 12:42:36;;;;;;;5.30;4.18;;;21.30;84.20;;;;;;5035957;28;20216;-88
2022/10/24 12:45:06;;;;;;;5.90;4.38;;;21.50;82.30;;;;;;5015013;28;20199;-89
2022/10/24 12:47:43;;;;;;;7.57;4.65;;;21.60;82.10;;;;;;5037364;28;20192;-91
2022/10/24 12:50:21;;;;;;;9.45;4.25;;;21.90;80.20;;;;;;5018900;28;20560;-91
2022/10/24 12:52:46;;;;;;;6.45;4.03;;;22.00;80.60;;;;;;5034646;28;20188;-91
2022/10/24 12:55:36;;;;;;;10.13;4.82;;;22.00;79.40;;;;;;5036573;28;20193;-91
2022/10/24 12:58:28;;;;;;;7.13;4.18;;;22.20;78.60;;;;;;5039136;28;20205;-91
2022/10/24 13:01:00;;;;;;;9.25;4.43;;;22.20;79.50;;;;;;5035147;28;20201;-91
2022/10/24 13:04:00;;;;;;;7.95;4.30;;;22.30;80.50;;;;;;5037228;28;20683;-91
2022/10/24 13:06:33;;;;;;;8.88;4.32;;;22.80;75.20;;;;;;5037831;28;20191;-90